Time;durP1;ratioP1;P1;durP2;ratioP2;P2;SDS_P1;SDS_P2;PMS_P1;PMS_P2;Temp;Humidity;BMP_temperature;BMP_pressure;BME280_temperature;BME280_humidity;BME280_pressure;Samples;Min_cycle;Max_cycle;Signal;HPM_P1;HPM_P2
2023/07/05 00:00:54;;;;;;;3.17;1.83;;;;;;;;;;5037604;28;20155;-62
2023/07/05 00:03:20;;;;;;;2.90;1.55;;;;;;;;;;5036889;28;20533;-62
2023/07/05 00:05:46;;;;;;;2.17;1.60;;;;;;;;;;5037302;28;20148;-62
2023/07/05 00:08:12;;;;;;;2.70;1.30;;;;;;;;;;5039659;28;20052;-62
2023/07/05 00:10:38;;;;;;;2.35;1.42;;;;;;;;;;5034898;28;20140;-62
2023/07/05 00:13:04;;;;;;;0.98;0.65;;;;;;;;;;5038164;28;20041;-62
2023/07/05 00:15:31;;;;;;;1.25;0.98;;;;;;;;;;5038408;28;20045;-62
2023/07/05 00:17:57;;;;;;;1.65;1.20;;;;;;;;;;5041133;28;20341;-62
2023/07/05 00:20:23;;;;;;;0.90;0.70;;;;;;;;;;5035590;28;20121;-62
2023/07/05 00:22:50;;;;;;;1.25;0.90;;;;;;;;;;5039487;28;20041;-62
2023/07/05 00:25:16;;;;;;;1.85;0.80;;;;;;;;;;5035232;28;20051;-62
2023/07/05 00:27:42;;;;;;;1.17;0.65;;;;;;;;;;5038693;28;20037;-62
2023/07/05 00:30:08;;;;;;;2.17;0.70;;;;;;;;;;5038259;28;20033;-62
2023/07/05 00:32:34;;;;;;;0.73;0.73;;;;;;;;;;5038447;28;20033;-62
2023/07/05 00:35:00;;;;;;;0.70;0.70;;;;;;;;;;5037392;28;20041;-62
2023/07/05 00:37:26;;;;;;;1.48;0.85;;;;;;;;;;5035400;28;20047;-62
2023/07/05 00:39:52;;;;;;;1.40;0.82;;;;;;;;;;5035319;28;20049;-62
2023/07/05 00:42:18;;;;;;;1.58;1.30;;;;;;;;;;5037113;28;20091;-61
2023/07/05 00:45:04;;;;;;;1.85;0.75;;;;;;;;;;5039481;28;20044;-62
2023/07/05 00:47:33;;;;;;;1.70;1.08;;;;;;;;;;5037052;28;20037;-62
2023/07/05 00:50:01;;;;;;;1.45;0.90;;;;;;;;;;5040519;28;20114;-62
2023/07/05 00:52:28;;;;;;;1.25;0.82;;;;;;;;;;5036382;28;20036;-63
2023/07/05 00:54:56;;;;;;;1.77;1.00;;;;;;;;;;5037212;28;20029;-62
2023/07/05 00:57:24;;;;;;;1.08;0.90;;;;;;;;;;5036521;28;20037;-62
2023/07/05 00:59:53;;;;;;;2.35;0.90;;;;;;;;;;5040942;28;20037;-62
2023/07/05 01:02:19;;;;;;;3.00;1.40;;;;;;;;;;5036245;28;20045;-62
2023/07/05 01:04:45;;;;;;;2.65;1.20;;;;;;;;;;5037617;28;20041;-62
2023/07/05 01:07:11;;;;;;;2.83;1.02;;;;;;;;;;5036863;28;20044;-62
2023/07/05 01:09:37;;;;;;;3.70;1.08;;;;;;;;;;5039431;28;20044;-62
2023/07/05 01:12:19;;;;;;;1.20;1.10;;;;;;;;;;5036803;28;20045;-62
2023/07/05 01:14:51;;;;;;;1.77;0.80;;;;;;;;;;5033821;28;20071;-62
2023/07/05 01:17:35;;;;;;;1.65;1.10;;;;;;;;;;5035190;28;20072;-62
2023/07/05 01:20:05;;;;;;;1.35;0.90;;;;;;;;;;5034708;28;20041;-61
2023/07/05 01:22:46;;;;;;;1.73;1.13;;;;;;;;;;5038390;28;20501;-62
2023/07/05 01:25:19;;;;;;;2.83;1.83;;;;;;;;;;5038062;28;20048;-62
2023/07/05 01:27:56;;;;;;;2.70;1.50;;;;;;;;;;5037344;28;20044;-62
2023/07/05 01:30:41;;;;;;;2.17;1.63;;;;;;;;;;5034600;28;20734;-62
2023/07/05 01:33:09;;;;;;;3.03;1.50;;;;;;;;;;5038142;28;20398;-62
2023/07/05 01:35:37;;;;;;;4.95;1.60;;;;;;;;;;5036082;28;20040;-62
2023/07/05 01:38:06;;;;;;;1.83;1.65;;;;;;;;;;5037739;28;20664;-62
2023/07/05 01:40:32;;;;;;;2.13;1.13;;;;;;;;;;5038665;28;20034;-62
2023/07/05 01:43:00;;;;;;;1.58;1.25;;;;;;;;;;5035612;28;20055;-62
2023/07/05 01:45:35;;;;;;;1.65;1.30;;;;;;;;;;5038069;28;21051;-62
2023/07/05 01:48:10;;;;;;;1.75;1.30;;;;;;;;;;5033515;28;20047;-62
2023/07/05 01:50:40;;;;;;;1.88;1.48;;;;;;;;;;5035732;28;20044;-62
2023/07/05 01:53:12;;;;;;;1.88;1.55;;;;;;;;;;5035549;28;20037;-62
2023/07/05 01:56:07;;;;;;;3.60;2.00;;;;;;;;;;5034393;28;20035;-62
2023/07/05 01:58:36;;;;;;;4.10;2.42;;;;;;;;;;5021388;28;20056;-61
2023/07/05 02:01:03;;;;;;;2.38;1.98;;;;;;;;;;5037565;28;20102;-62
2023/07/05 02:03:30;;;;;;;2.60;1.67;;;;;;;;;;5036532;28;20041;-62
2023/07/05 02:05:57;;;;;;;2.92;1.88;;;;;;;;;;5036070;28;20037;-62
2023/07/05 02:08:25;;;;;;;2.00;1.70;;;;;;;;;;5037284;28;20123;-63
2023/07/05 02:10:51;;;;;;;4.35;2.78;;;;;;;;;;5034950;28;20096;-62
2023/07/05 02:13:18;;;;;;;3.35;2.30;;;;;;;;;;5035022;28;20398;-62
2023/07/05 02:15:46;;;;;;;1.60;1.33;;;;;;;;;;5038046;28;20056;-62
2023/07/05 02:18:12;;;;;;;2.95;2.08;;;;;;;;;;5035312;28;20076;-62
2023/07/05 02:20:38;;;;;;;1.65;1.40;;;;;;;;;;5035298;28;20119;-62
2023/07/05 02:23:04;;;;;;;4.30;1.83;;;;;;;;;;5036883;28;20512;-62
2023/07/05 02:25:31;;;;;;;2.03;1.75;;;;;;;;;;5036824;28;20142;-62
2023/07/05 02:27:57;;;;;;;2.63;2.05;;;;;;;;;;5036055;28;20041;-62
2023/07/05 02:30:26;;;;;;;1.45;1.35;;;;;;;;;;5036146;28;20052;-63
2023/07/05 02:32:52;;;;;;;2.05;1.50;;;;;;;;;;5036923;28;20048;-62
2023/07/05 02:35:18;;;;;;;4.07;1.30;;;;;;;;;;5035442;28;20033;-62
2023/07/05 02:37:44;;;;;;;2.25;1.63;;;;;;;;;;5034805;28;20086;-62
2023/07/05 02:40:10;;;;;;;2.47;1.95;;;;;;;;;;5032596;28;20519;-62
2023/07/05 02:42:36;;;;;;;2.55;1.58;;;;;;;;;;5031188;28;20037;-62
2023/07/05 02:45:02;;;;;;;4.38;2.08;;;;;;;;;;5033583;28;20049;-62
2023/07/05 02:47:28;;;;;;;2.53;2.33;;;;;;;;;;5036416;28;20036;-61
2023/07/05 02:49:54;;;;;;;4.57;3.53;;;;;;;;;;5034059;28;20441;-62
2023/07/05 02:52:20;;;;;;;4.07;3.15;;;;;;;;;;5034510;28;20041;-63
2023/07/05 02:54:46;;;;;;;10.02;5.05;;;;;;;;;;5036757;28;20051;-62
2023/07/05 02:57:12;;;;;;;6.38;3.60;;;;;;;;;;5036583;28;20055;-63
2023/07/05 02:59:38;;;;;;;5.28;3.78;;;;;;;;;;5034654;28;20517;-61
2023/07/05 03:02:05;;;;;;;6.20;3.40;;;;;;;;;;5034967;28;20494;-61
2023/07/05 03:04:31;;;;;;;5.25;3.50;;;;;;;;;;5035811;28;20072;-61
2023/07/05 03:06:57;;;;;;;5.18;4.40;;;;;;;;;;5035086;28;20044;-61
2023/07/05 03:09:23;;;;;;;6.00;4.43;;;;;;;;;;5035092;28;20045;-62
2023/07/05 03:11:49;;;;;;;4.75;3.47;;;;;;;;;;5034124;28;20052;-62
2023/07/05 03:14:15;;;;;;;6.63;4.75;;;;;;;;;;5033016;28;20471;-62
2023/07/05 03:16:41;;;;;;;6.10;4.78;;;;;;;;;;5034190;28;20045;-62
2023/07/05 03:19:07;;;;;;;7.18;5.57;;;;;;;;;;5033648;28;20053;-61
2023/07/05 03:21:33;;;;;;;5.63;4.00;;;;;;;;;;5033020;28;20038;-62
2023/07/05 03:23:59;;;;;;;4.43;4.00;;;;;;;;;;5036020;28;20450;-62
2023/07/05 03:26:25;;;;;;;6.80;5.07;;;;;;;;;;5035491;28;20452;-62
2023/07/05 03:28:51;;;;;;;5.53;4.70;;;;;;;;;;5033448;28;20045;-62
2023/07/05 03:31:18;;;;;;;6.78;4.95;;;;;;;;;;5034550;28;20032;-62
2023/07/05 03:33:44;;;;;;;11.68;7.38;;;;;;;;;;5033686;28;20045;-62
2023/07/05 03:36:12;;;;;;;6.63;5.45;;;;;;;;;;5032895;28;20046;-62
2023/07/05 03:38:38;;;;;;;6.35;4.45;;;;;;;;;;5033574;28;20037;-61
2023/07/05 03:41:09;;;;;;;8.88;5.60;;;;;;;;;;5031026;28;20037;-62
2023/07/05 03:43:36;;;;;;;5.53;4.80;;;;;;;;;;5035493;28;20037;-62
2023/07/05 03:46:03;;;;;;;6.05;5.45;;;;;;;;;;5034414;28;20155;-61
2023/07/05 03:48:30;;;;;;;5.35;4.85;;;;;;;;;;5031585;28;20091;-62
2023/07/05 03:50:56;;;;;;;7.68;6.35;;;;;;;;;;5032831;28;20041;-62
2023/07/05 03:53:23;;;;;;;5.82;5.22;;;;;;;;;;5034026;28;20045;-62
2023/07/05 03:55:49;;;;;;;7.25;5.75;;;;;;;;;;5036229;28;20408;-62
2023/07/05 03:58:15;;;;;;;6.55;4.50;;;;;;;;;;5032220;28;20041;-62
2023/07/05 04:00:41;;;;;;;6.30;5.60;;;;;;;;;;5030843;28;20106;-61
2023/07/05 04:03:07;;;;;;;8.32;5.95;;;;;;;;;;5030738;28;20076;-62
2023/07/05 04:05:34;;;;;;;5.65;4.38;;;;;;;;;;5032960;28;20054;-62
2023/07/05 04:08:00;;;;;;;5.57;4.82;;;;;;;;;;5032199;28;20041;-62
2023/07/05 04:10:26;;;;;;;5.28;4.75;;;;;;;;;;5030625;28;20441;-62
2023/07/05 04:12:52;;;;;;;6.30;4.72;;;;;;;;;;5029074;28;20353;-62
2023/07/05 04:15:18;;;;;;;4.82;4.35;;;;;;;;;;5033751;28;20056;-62
2023/07/05 04:17:44;;;;;;;5.55;4.38;;;;;;;;;;5032937;28;20041;-62
2023/07/05 04:20:10;;;;;;;4.93;4.47;;;;;;;;;;5034667;28;20467;-61
2023/07/05 04:22:38;;;;;;;4.57;4.18;;;;;;;;;;5035196;28;20041;-62
2023/07/05 04:25:04;;;;;;;3.13;2.90;;;;;;;;;;5034068;28;20045;-62
2023/07/05 04:27:31;;;;;;;3.65;3.33;;;;;;;;;;5037820;28;20040;-62
2023/07/05 04:29:57;;;;;;;4.00;3.55;;;;;;;;;;5039204;28;20454;-62
2023/07/05 04:32:23;;;;;;;3.70;3.13;;;;;;;;;;5036278;28;20516;-62
2023/07/05 04:34:49;;;;;;;4.15;3.60;;;;;;;;;;5037299;28;20808;-62
2023/07/05 04:37:15;;;;;;;4.25;3.60;;;;;;;;;;5037808;28;20816;-62
2023/07/05 04:39:41;;;;;;;7.22;4.00;;;;;;;;;;5038320;28;20110;-62
2023/07/05 04:42:07;;;;;;;5.28;4.78;;;;;;;;;;5035739;28;20037;-62
2023/07/05 04:44:33;;;;;;;5.40;4.90;;;;;;;;;;5038027;28;20041;-62
2023/07/05 04:46:59;;;;;;;4.35;3.95;;;;;;;;;;5037134;28;20117;-62
2023/07/05 04:49:25;;;;;;;4.65;4.15;;;;;;;;;;5037142;28;20064;-62
2023/07/05 04:51:51;;;;;;;4.40;4.00;;;;;;;;;;5036064;28;20599;-62
2023/07/05 04:54:17;;;;;;;4.65;4.25;;;;;;;;;;5037562;28;20045;-62
2023/07/05 04:56:43;;;;;;;4.63;4.22;;;;;;;;;;5035896;28;20064;-62
2023/07/05 04:59:12;;;;;;;7.18;5.53;;;;;;;;;;5033626;28;20069;-63
2023/07/05 05:01:39;;;;;;;5.60;5.10;;;;;;;;;;5034527;28;20032;-62
2023/07/05 05:04:05;;;;;;;5.22;3.80;;;;;;;;;;5035560;28;20044;-62
2023/07/05 05:06:31;;;;;;;5.78;4.60;;;;;;;;;;5038195;28;20103;-62
2023/07/05 05:08:57;;;;;;;5.43;4.15;;;;;;;;;;5035748;28;20080;-62
2023/07/05 05:11:26;;;;;;;3.85;3.55;;;;;;;;;;5035649;28;20077;-61
2023/07/05 05:13:52;;;;;;;3.30;3.00;;;;;;;;;;5036051;28;20365;-61
2023/07/05 05:16:18;;;;;;;4.18;3.42;;;;;;;;;;5036772;28;20038;-62
2023/07/05 05:18:44;;;;;;;3.60;2.75;;;;;;;;;;5035685;28;20040;-61
2023/07/05 05:21:10;;;;;;;4.38;3.85;;;;;;;;;;5036684;28;20132;-61
2023/07/05 05:23:37;;;;;;;3.55;3.17;;;;;;;;;;5040098;28;20108;-62
2023/07/05 05:26:03;;;;;;;2.85;2.55;;;;;;;;;;5040704;28;20059;-61
2023/07/05 05:28:32;;;;;;;3.05;2.75;;;;;;;;;;5037828;28;20049;-61
2023/07/05 05:31:06;;;;;;;3.60;2.97;;;;;;;;;;5038194;28;20051;-62
2023/07/05 05:33:32;;;;;;;2.65;2.28;;;;;;;;;;5037954;28;20064;-62
2023/07/05 05:35:58;;;;;;;4.10;2.60;;;;;;;;;;5037222;28;20148;-61
2023/07/05 05:38:24;;;;;;;3.08;2.78;;;;;;;;;;5039354;28;20037;-62
2023/07/05 05:40:52;;;;;;;3.42;2.78;;;;;;;;;;5038022;28;20064;-61
2023/07/05 05:43:19;;;;;;;3.33;2.80;;;;;;;;;;5036613;28;20496;-62
2023/07/05 05:45:45;;;;;;;4.82;2.92;;;;;;;;;;5037848;28;20541;-62
2023/07/05 05:48:11;;;;;;;3.05;2.75;;;;;;;;;;5036242;28;20124;-62
2023/07/05 05:50:37;;;;;;;2.95;2.47;;;;;;;;;;5036533;28;20041;-62
2023/07/05 05:53:03;;;;;;;4.05;2.95;;;;;;;;;;5038690;28;20033;-61
2023/07/05 05:55:29;;;;;;;3.05;2.80;;;;;;;;;;5037764;28;20045;-61
2023/07/05 05:57:56;;;;;;;2.90;2.67;;;;;;;;;;5037238;28;20047;-62
2023/07/05 06:00:21;;;;;;;3.95;3.05;;;;;;;;;;5039338;28;20049;-61
2023/07/05 06:02:47;;;;;;;3.65;2.75;;;;;;;;;;5037597;28;20049;-61
2023/07/05 06:05:15;;;;;;;2.85;2.65;;;;;;;;;;5036938;28;20087;-61
2023/07/05 06:07:41;;;;;;;3.95;3.30;;;;;;;;;;5039670;28;20453;-61
2023/07/05 06:10:07;;;;;;;3.28;2.95;;;;;;;;;;5035141;28;20037;-61
2023/07/05 06:12:35;;;;;;;4.57;3.10;;;;;;;;;;5037621;28;20052;-61
2023/07/05 06:15:01;;;;;;;3.17;2.88;;;;;;;;;;5034129;28;20059;-61
2023/07/05 06:17:27;;;;;;;3.17;2.97;;;;;;;;;;5033807;28;20091;-61
2023/07/05 06:19:54;;;;;;;4.03;3.10;;;;;;;;;;5034247;28;20072;-62
2023/07/05 06:22:19;;;;;;;3.50;3.17;;;;;;;;;;5033047;28;20080;-62
2023/07/05 06:24:45;;;;;;;2.63;2.42;;;;;;;;;;5033290;28;20068;-61
2023/07/05 06:27:11;;;;;;;5.97;2.75;;;;;;;;;;5038646;28;20401;-61
2023/07/05 06:29:37;;;;;;;3.25;2.45;;;;;;;;;;5034772;28;20512;-61
2023/07/05 06:32:04;;;;;;;3.67;3.20;;;;;;;;;;5034647;28;20127;-61
2023/07/05 06:34:30;;;;;;;5.18;2.58;;;;;;;;;;5034757;28;20393;-61
2023/07/05 06:36:56;;;;;;;3.00;2.70;;;;;;;;;;5034079;28;20493;-61
2023/07/05 06:39:22;;;;;;;3.00;2.70;;;;;;;;;;5033163;28;20040;-62
2023/07/05 06:41:48;;;;;;;2.80;2.55;;;;;;;;;;5035573;28;20034;-61
2023/07/05 06:44:14;;;;;;;2.47;2.25;;;;;;;;;;5033017;28;20444;-61
2023/07/05 06:46:40;;;;;;;6.80;2.80;;;;;;;;;;5035297;28;20087;-61
2023/07/05 06:49:06;;;;;;;4.82;2.70;;;;;;;;;;5031362;28;20046;-61
2023/07/05 06:51:32;;;;;;;3.75;2.80;;;;;;;;;;5036032;28;20124;-62
2023/07/05 06:53:58;;;;;;;2.85;2.33;;;;;;;;;;5032773;28;20116;-61
2023/07/05 06:56:24;;;;;;;3.97;2.45;;;;;;;;;;5035239;28;20045;-61
2023/07/05 06:58:50;;;;;;;4.50;2.72;;;;;;;;;;5035317;28;20094;-62
2023/07/05 07:01:16;;;;;;;4.38;2.78;;;;;;;;;;5034988;28;20037;-61
2023/07/05 07:03:42;;;;;;;9.38;3.13;;;;;;;;;;5034650;28;20444;-61
2023/07/05 07:06:10;;;;;;;2.95;2.30;;;;;;;;;;5033365;28;21395;-62
2023/07/05 07:08:39;;;;;;;3.65;2.67;;;;;;;;;;5034340;28;20123;-62
2023/07/05 07:11:06;;;;;;;4.05;2.47;;;;;;;;;;5032723;28;20485;-62
2023/07/05 07:13:32;;;;;;;2.88;2.28;;;;;;;;;;5035901;28;20052;-62
2023/07/05 07:16:12;;;;;;;2.97;2.30;;;;;;;;;;5033470;28;20130;-63
2023/07/05 07:18:38;;;;;;;2.65;2.28;;;;;;;;;;5035287;28;20041;-61
2023/07/05 07:21:08;;;;;;;3.13;2.53;;;;;;;;;;5033622;28;20397;-61
2023/07/05 07:23:35;;;;;;;3.67;2.40;;;;;;;;;;5031454;28;20037;-61
2023/07/05 07:26:03;;;;;;;2.55;2.35;;;;;;;;;;5027997;28;20118;-61
2023/07/05 07:28:30;;;;;;;2.55;2.30;;;;;;;;;;5038147;28;20041;-61
2023/07/05 07:30:56;;;;;;;2.83;2.10;;;;;;;;;;5033983;28;20045;-60
2023/07/05 07:33:23;;;;;;;2.35;2.15;;;;;;;;;;5035154;28;20405;-61
2023/07/05 07:35:49;;;;;;;3.28;2.15;;;;;;;;;;5039020;28;20329;-61
2023/07/05 07:38:16;;;;;;;2.15;1.92;;;;;;;;;;5032035;28;20120;-61
2023/07/05 07:40:42;;;;;;;2.17;1.70;;;;;;;;;;5032042;28;20183;-61
2023/07/05 07:43:08;;;;;;;6.47;1.73;;;;;;;;;;5024291;28;20385;-61
2023/07/05 07:45:34;;;;;;;1.80;1.58;;;;;;;;;;5033117;28;20564;-62
2023/07/05 07:48:00;;;;;;;3.25;2.00;;;;;;;;;;5039544;28;20306;-62
2023/07/05 07:50:26;;;;;;;2.20;1.60;;;;;;;;;;5029159;28;20669;-62
2023/07/05 07:52:53;;;;;;;3.15;2.35;;;;;;;;;;5031068;28;20270;-62
2023/07/05 07:55:19;;;;;;;3.53;2.17;;;;;;;;;;5035916;28;20036;-57
2023/07/05 07:57:45;;;;;;;5.38;2.13;;;;;;;;;;5038737;28;20041;-59
2023/07/05 08:00:11;;;;;;;3.20;2.17;;;;;;;;;;5037651;28;20052;-58
2023/07/05 08:02:37;;;;;;;1.30;1.13;;;;;;;;;;5045320;28;20409;-65
2023/07/05 08:05:04;;;;;;;1.85;1.00;;;;;;;;;;5036799;28;20531;-60
2023/07/05 08:07:31;;;;;;;1.38;1.05;;;;;;;;;;5040519;28;20047;-61
2023/07/05 08:09:58;;;;;;;1.65;0.80;;;;;;;;;;5042246;28;20401;-61
2023/07/05 08:12:24;;;;;;;0.50;0.50;;;;;;;;;;5029695;28;20061;-61
2023/07/05 08:14:50;;;;;;;1.00;0.52;;;;;;;;;;5046401;28;20053;-60
2023/07/05 08:17:17;;;;;;;0.88;0.55;;;;;;;;;;5035613;28;20049;-61
2023/07/05 08:19:43;;;;;;;0.60;0.60;;;;;;;;;;5048161;28;20047;-61
2023/07/05 08:22:10;;;;;;;1.35;1.05;;;;;;;;;;5041900;28;20120;-62
2023/07/05 08:24:36;;;;;;;1.25;0.60;;;;;;;;;;5033044;28;20056;-61
2023/07/05 08:27:02;;;;;;;0.65;0.65;;;;;;;;;;5039481;28;20034;-61
2023/07/05 08:29:28;;;;;;;1.08;0.80;;;;;;;;;;5028169;28;20486;-61
2023/07/05 08:31:54;;;;;;;1.48;1.02;;;;;;;;;;5035772;28;20044;-61
2023/07/05 08:34:20;;;;;;;1.48;0.95;;;;;;;;;;5047691;28;20486;-60
2023/07/05 08:36:46;;;;;;;1.88;0.85;;;;;;;;;;5041961;28;20041;-60
2023/07/05 08:39:12;;;;;;;0.50;0.40;;;;;;;;;;5041191;28;20041;-61
2023/07/05 08:41:41;;;;;;;2.00;0.65;;;;;;;;;;5044481;28;20544;-62
2023/07/05 08:44:27;;;;;;;0.75;0.65;;;;;;;;;;5047117;28;20045;-62
2023/07/05 08:46:55;;;;;;;0.93;0.75;;;;;;;;;;5046636;28;20042;-62
2023/07/05 08:49:27;;;;;;;0.38;0.25;;;;;;;;;;5041143;28;20530;-61
2023/07/05 08:51:55;;;;;;;0.73;0.50;;;;;;;;;;5041378;28;20136;-62
2023/07/05 08:54:21;;;;;;;1.40;0.63;;;;;;;;;;5040372;28;20049;-61
2023/07/05 08:56:49;;;;;;;0.68;0.50;;;;;;;;;;5039101;28;20047;-62
2023/07/05 08:59:23;;;;;;;0.95;0.47;;;;;;;;;;5047087;28;20033;-61
2023/07/05 09:01:51;;;;;;;1.30;0.60;;;;;;;;;;5048490;28;20041;-61
2023/07/05 09:04:28;;;;;;;2.55;0.77;;;;;;;;;;5049292;28;20053;-62
2023/07/05 09:07:02;;;;;;;2.15;0.60;;;;;;;;;;5047499;28;20041;-62
2023/07/05 09:09:29;;;;;;;1.20;0.55;;;;;;;;;;5049121;28;20055;-61
2023/07/05 09:12:03;;;;;;;1.00;0.68;;;;;;;;;;5043405;28;20093;-61
2023/07/05 09:14:40;;;;;;;3.55;0.95;;;;;;;;;;5028174;28;20133;-62
2023/07/05 09:17:15;;;;;;;2.35;0.90;;;;;;;;;;5035411;28;20044;-61
2023/07/05 09:19:50;;;;;;;2.80;1.25;;;;;;;;;;5040912;28;20654;-61
2023/07/05 09:22:20;;;;;;;3.53;1.52;;;;;;;;;;5044733;28;20494;-61
2023/07/05 09:24:46;;;;;;;3.38;1.40;;;;;;;;;;5043149;28;20568;-62
2023/07/05 09:27:18;;;;;;;5.40;1.55;;;;;;;;;;5044032;28;20045;-61
2023/07/05 09:29:48;;;;;;;5.32;1.10;;;;;;;;;;5038038;28;20183;-61
2023/07/05 09:32:18;;;;;;;3.72;0.98;;;;;;;;;;5042837;28;20045;-61
2023/07/05 09:34:56;;;;;;;1.83;0.70;;;;;;;;;;5046355;28;20037;-61
2023/07/05 09:37:23;;;;;;;2.90;0.55;;;;;;;;;;5044551;28;20549;-61
2023/07/05 09:40:08;;;;;;;2.88;0.70;;;;;;;;;;5044307;28;20045;-61
2023/07/05 09:43:02;;;;;;;1.73;0.82;;;;;;;;;;5046420;28;20067;-60
2023/07/05 09:45:28;;;;;;;2.25;0.60;;;;;;;;;;5043792;28;20501;-62
2023/07/05 09:47:59;;;;;;;1.25;0.70;;;;;;;;;;5045795;28;20040;-61
2023/07/05 09:50:25;;;;;;;1.67;0.80;;;;;;;;;;5044455;28;20060;-61
2023/07/05 09:52:53;;;;;;;2.58;0.63;;;;;;;;;;5041141;28;20071;-61
2023/07/05 09:55:20;;;;;;;4.80;1.05;;;;;;;;;;5040308;28;20033;-62
2023/07/05 09:57:47;;;;;;;2.65;1.20;;;;;;;;;;5041425;28;20044;-61
2023/07/05 10:00:36;;;;;;;4.75;1.27;;;;;;;;;;5038832;28;20409;-61
2023/07/05 10:03:10;;;;;;;2.20;0.70;;;;;;;;;;5036104;28;20053;-61
2023/07/05 10:05:36;;;;;;;1.60;0.93;;;;;;;;;;5042148;28;20091;-61
2023/07/05 10:08:04;;;;;;;1.88;0.82;;;;;;;;;;5040029;28;20037;-61
2023/07/05 10:10:40;;;;;;;1.50;0.40;;;;;;;;;;5034276;28;20045;-61
2023/07/05 10:13:25;;;;;;;1.10;0.73;;;;;;;;;;5035209;28;20064;-61
2023/07/05 10:15:52;;;;;;;2.95;0.60;;;;;;;;;;5030535;28;20049;-62
2023/07/05 10:18:25;;;;;;;2.55;0.60;;;;;;;;;;5031675;28;20041;-61
2023/07/05 10:20:52;;;;;;;0.10;0.10;;;;;;;;;;5040952;28;20132;-62
2023/07/05 10:23:22;;;;;;;0.20;0.20;;;;;;;;;;5035864;28;20069;-62
2023/07/05 10:25:49;;;;;;;1.05;0.20;;;;;;;;;;5038627;28;20492;-62
2023/07/05 10:28:16;;;;;;;1.92;0.20;;;;;;;;;;5037553;28;20037;-61
2023/07/05 10:30:49;;;;;;;0.30;0.22;;;;;;;;;;5041658;28;20041;-61
2023/07/05 10:33:17;;;;;;;0.17;0.17;;;;;;;;;;5039142;28;20041;-61
2023/07/05 10:36:05;;;;;;;3.28;0.30;;;;;;;;;;5040691;28;20068;-61
2023/07/05 10:38:46;;;;;;;0.40;0.17;;;;;;;;;;5034327;28;20418;-61
2023/07/05 10:41:21;;;;;;;1.27;0.33;;;;;;;;;;5032150;28;20128;-61
2023/07/05 10:43:56;;;;;;;1.63;0.30;;;;;;;;;;5034906;28;20052;-61
2023/07/05 10:46:24;;;;;;;0.90;0.30;;;;;;;;;;5035732;28;20482;-61
2023/07/05 10:48:52;;;;;;;1.58;0.28;;;;;;;;;;5035504;28;20044;-62
2023/07/05 10:51:23;;;;;;;0.35;0.17;;;;;;;;;;5037029;28;20056;-61
2023/07/05 10:53:53;;;;;;;3.38;0.47;;;;;;;;;;5042051;28;20518;-61
2023/07/05 10:56:25;;;;;;;1.52;0.32;;;;;;;;;;5038894;28;20056;-62
2023/07/05 10:59:01;;;;;;;2.10;0.28;;;;;;;;;;5035742;28;20129;-62
2023/07/05 11:01:34;;;;;;;3.47;0.70;;;;;;;;;;5031468;28;20041;-61
2023/07/05 11:04:03;;;;;;;0.52;0.10;;;;;;;;;;5027114;28;20050;-61
2023/07/05 11:06:30;;;;;;;0.75;0.20;;;;;;;;;;5034148;28;20037;-62
2023/07/05 11:08:57;;;;;;;0.10;0.10;;;;;;;;;;5039567;28;20433;-62
2023/07/05 11:11:30;;;;;;;0.35;0.20;;;;;;;;;;5034840;28;20457;-61
2023/07/05 11:14:00;;;;;;;0.32;0.20;;;;;;;;;;5031094;28;20053;-61
2023/07/05 11:16:26;;;;;;;0.22;0.20;;;;;;;;;;5035127;28;20045;-61
2023/07/05 11:18:56;;;;;;;0.60;0.30;;;;;;;;;;5031693;28;20146;-61
2023/07/05 11:21:41;;;;;;;2.03;0.50;;;;;;;;;;5035898;28;20049;-61
2023/07/05 11:24:30;;;;;;;1.15;0.50;;;;;;;;;;5039001;28;20115;-61
2023/07/05 11:26:57;;;;;;;0.73;0.45;;;;;;;;;;5033682;28;20056;-61
2023/07/05 11:29:26;;;;;;;1.50;0.52;;;;;;;;;;5025260;28;20045;-61
2023/07/05 11:31:52;;;;;;;1.38;0.57;;;;;;;;;;5033723;28;20040;-62
2023/07/05 11:34:21;;;;;;;1.13;0.43;;;;;;;;;;5042700;28;20043;-61
2023/07/05 11:36:48;;;;;;;0.90;0.30;;;;;;;;;;5043560;28;20452;-62
2023/07/05 11:39:33;;;;;;;1.73;0.55;;;;;;;;;;5037201;28;20045;-61
2023/07/05 11:42:14;;;;;;;0.60;0.52;;;;;;;;;;5044495;28;20045;-61
2023/07/05 11:44:46;;;;;;;2.13;0.70;;;;;;;;;;5046006;28;20041;-61
2023/07/05 11:47:21;;;;;;;2.78;0.77;;;;;;;;;;5045009;28;20305;-61
2023/07/05 11:49:49;;;;;;;3.30;0.90;;;;;;;;;;5038704;28;20045;-61
2023/07/05 11:52:25;;;;;;;3.28;1.10;;;;;;;;;;5041862;28;20033;-62
2023/07/05 11:54:57;;;;;;;2.30;0.93;;;;;;;;;;5041073;28;20053;-62
2023/07/05 11:57:23;;;;;;;;;;;;;;;;;;5040651;28;20095;-62
2023/07/05 11:59:49;;;;;;;2.83;0.88;;;;;;;;;;5040360;28;20395;-62
2023/07/05 12:02:27;;;;;;;3.45;0.95;;;;;;;;;;5035941;28;20085;-62
2023/07/05 12:04:55;;;;;;;4.82;0.90;;;;;;;;;;5044537;28;20041;-62
2023/07/05 12:07:21;;;;;;;3.95;1.05;;;;;;;;;;5044294;28;20077;-62
2023/07/05 12:09:48;;;;;;;9.57;2.13;;;;;;;;;;5028698;28;20056;-62
2023/07/05 12:12:15;;;;;;;6.90;2.47;;;;;;;;;;5034227;28;20557;-62
2023/07/05 12:14:43;;;;;;;5.68;1.85;;;;;;;;;;5030692;28;20087;-62
2023/07/05 12:17:14;;;;;;;11.65;2.38;;;;;;;;;;5038149;28;20081;-62
2023/07/05 12:19:40;;;;;;;6.40;2.35;;;;;;;;;;5037457;28;20037;-62
2023/07/05 12:22:09;;;;;;;4.80;1.80;;;;;;;;;;5033394;28;20046;-62
2023/07/05 12:24:38;;;;;;;4.55;1.88;;;;;;;;;;5040877;28;20052;-62
2023/07/05 12:27:05;;;;;;;5.20;2.55;;;;;;;;;;5038498;28;20529;-62
2023/07/05 12:29:31;;;;;;;3.53;1.77;;;;;;;;;;5036722;28;20406;-62
2023/07/05 12:32:05;;;;;;;7.03;2.03;;;;;;;;;;5035334;28;20047;-62
2023/07/05 12:34:31;;;;;;;5.35;1.92;;;;;;;;;;5037465;28;20494;-61
2023/07/05 12:36:58;;;;;;;6.57;1.58;;;;;;;;;;5034990;28;20056;-61
2023/07/05 12:39:25;;;;;;;7.95;2.28;;;;;;;;;;5039038;28;20037;-62
2023/07/05 12:41:58;;;;;;;6.72;1.88;;;;;;;;;;5039583;28;20578;-62
2023/07/05 12:44:24;;;;;;;5.60;1.73;;;;;;;;;;5037694;28;20462;-61
2023/07/05 12:46:51;;;;;;;2.08;0.90;;;;;;;;;;5043563;28;20662;-61
2023/07/05 12:49:22;;;;;;;5.47;1.40;;;;;;;;;;5043422;28;20047;-62
2023/07/05 12:51:49;;;;;;;4.55;1.55;;;;;;;;;;5044177;28;20037;-62
2023/07/05 12:54:15;;;;;;;6.97;1.20;;;;;;;;;;5039112;28;20037;-61
2023/07/05 12:56:44;;;;;;;3.78;1.42;;;;;;;;;;5040706;28;20140;-61
2023/07/05 12:59:29;;;;;;;2.42;1.40;;;;;;;;;;5038363;28;20045;-62
2023/07/05 13:01:55;;;;;;;5.50;1.65;;;;;;;;;;5040856;28;20512;-61
2023/07/05 13:04:22;;;;;;;8.65;2.20;;;;;;;;;;5040884;28;20082;-61
2023/07/05 13:06:49;;;;;;;6.88;2.25;;;;;;;;;;5039875;28;20045;-61
2023/07/05 13:09:28;;;;;;;7.05;1.83;;;;;;;;;;5042245;28;20041;-61
2023/07/05 13:12:01;;;;;;;4.43;1.80;;;;;;;;;;5041500;28;20064;-61
2023/07/05 13:14:28;;;;;;;7.38;2.42;;;;;;;;;;5041195;28;20041;-61
2023/07/05 13:16:57;;;;;;;8.98;2.42;;;;;;;;;;5038175;28;20056;-62
2023/07/05 13:19:42;;;;;;;5.88;2.00;;;;;;;;;;5039918;28;20053;-62
2023/07/05 13:22:21;;;;;;;6.32;2.28;;;;;;;;;;5038451;28;20485;-61
2023/07/05 13:24:48;;;;;;;7.80;2.50;;;;;;;;;;5041212;28;20036;-62
2023/07/05 13:27:21;;;;;;;6.85;2.28;;;;;;;;;;5036712;28;20049;-62
2023/07/05 13:29:47;;;;;;;5.20;2.15;;;;;;;;;;5045464;28;20056;-62
2023/07/05 13:32:23;;;;;;;8.23;2.53;;;;;;;;;;5043807;28;20040;-62
2023/07/05 13:34:49;;;;;;;8.55;2.03;;;;;;;;;;5044640;28;20048;-62
2023/07/05 13:37:25;;;;;;;6.68;2.13;;;;;;;;;;5040614;28;20449;-62
2023/07/05 13:39:52;;;;;;;7.75;1.92;;;;;;;;;;5042956;28;20479;-62
2023/07/05 13:42:19;;;;;;;6.60;2.20;;;;;;;;;;5043373;28;20037;-62
2023/07/05 13:44:46;;;;;;;9.80;2.75;;;;;;;;;;5044027;28;20037;-62
2023/07/05 13:47:13;;;;;;;4.82;1.63;;;;;;;;;;5032420;28;20053;-62
2023/07/05 13:49:39;;;;;;;4.75;1.67;;;;;;;;;;5033742;28;20041;-62
2023/07/05 13:52:05;;;;;;;3.45;2.05;;;;;;;;;;5033108;28;20444;-62
2023/07/05 13:54:32;;;;;;;6.32;2.47;;;;;;;;;;5028597;28;20370;-62
2023/07/05 13:56:58;;;;;;;2.78;1.55;;;;;;;;;;5034590;28;20045;-62
2023/07/05 13:59:25;;;;;;;4.07;1.75;;;;;;;;;;5037780;28;20175;-62
2023/07/05 14:01:51;;;;;;;4.00;1.73;;;;;;;;;;5037439;28;20052;-62
2023/07/05 14:04:17;;;;;;;5.35;1.83;;;;;;;;;;5039372;28;20397;-62
2023/07/05 14:06:43;;;;;;;3.88;1.77;;;;;;;;;;5035247;28;20044;-62
2023/07/05 14:09:11;;;;;;;4.97;2.13;;;;;;;;;;5040544;28;20048;-62
2023/07/05 14:11:38;;;;;;;7.90;2.25;;;;;;;;;;5042358;28;20057;-62
2023/07/05 14:14:05;;;;;;;5.95;2.60;;;;;;;;;;5043546;28;20037;-61
2023/07/05 14:16:33;;;;;;;4.47;1.83;;;;;;;;;;5040727;28;20045;-62
2023/07/05 14:18:59;;;;;;;6.43;2.00;;;;;;;;;;5040738;28;20057;-62
2023/07/05 14:21:32;;;;;;;6.03;2.55;;;;;;;;;;5040731;28;20033;-62
2023/07/05 14:24:00;;;;;;;5.15;2.15;;;;;;;;;;5045531;28;20044;-62
2023/07/05 14:26:28;;;;;;;6.57;3.03;;;;;;;;;;5041314;28;20050;-62
2023/07/05 14:28:54;;;;;;;11.30;3.25;;;;;;;;;;5034198;28;20045;-62
2023/07/05 14:31:21;;;;;;;6.65;2.53;;;;;;;;;;5041914;28;20488;-63
2023/07/05 14:33:47;;;;;;;5.50;2.90;;;;;;;;;;5045808;28;20500;-62
2023/07/05 14:36:14;;;;;;;7.85;2.42;;;;;;;;;;5043642;28;20052;-63
2023/07/05 14:38:41;;;;;;;7.13;2.95;;;;;;;;;;5036266;28;20039;-62
2023/07/05 14:41:10;;;;;;;3.88;2.00;;;;;;;;;;5045244;28;20045;-62
2023/07/05 14:43:36;;;;;;;11.38;3.05;;;;;;;;;;5040262;28;20037;-62
2023/07/05 14:46:02;;;;;;;6.68;3.17;;;;;;;;;;5042038;28;20033;-62
2023/07/05 14:48:28;;;;;;;5.32;2.70;;;;;;;;;;5033398;28;20444;-62
2023/07/05 14:50:54;;;;;;;4.13;1.98;;;;;;;;;;5044309;28;20215;-63